Peace River, Canada
Current Conditions -  °F | °C
As of 3:00 AM on Saturday 25 Oct 2014 (Local Time) from CYPE Reporting Station
Clear Clear  
Wind Chill: 29°   Ceiling: Unl
Heat Index: 34°   Visibility: 15mi
Dew Point: 30°   Wind: 6mph
Humidity: 87%   Direction: 300°WNW
Pressure: 29.94"   Gusts: NA
Location:  56.23°N, 117.29°W
Report Text: CYPE 250900Z 30005KT 15SM SKC 01/M01 A2994 RMK SLP165
Loading
Personal Weather Stations






























Interactive Weather Map
Tropical Storm Tracking
New forecast layout! Learn more

10-Day Weather Forecast

Advertisements
Track Severe Weather on mobile